Observations for FIRENZE PERETOLA, Italy (LIRQ)

LIRQ 221320Z 33008KT 290V020 9999 -DZ BKN040 OVC080 04/M00 Q1005
LIRQ 221250Z 33006KT 300V360 9999 BKN040 OVC080 05/00 Q1005 
LIRQ 221220Z 32006KT 290V360 9999 BKN040 OVC080 05/M00 Q1005
LIRQ 221150Z 31008KT 9999 BKN040 OVC080 05/M00 Q1006
LIRQ 221120Z 33009KT 9999 -DZ BKN040 OVC080 05/M01 Q1006
LIRQ 221050Z 33010KT 9999 BKN040 05/M01 Q1007   
LIRQ 221020Z 33010KT 9999 BKN040 05/M01 Q1007   
LIRQ 220950Z 34007KT 300V030 9999 BKN040 05/M01 Q1007   
LIRQ 220920Z 33008KT 300V360 9999 BKN045 05/M01 Q1008   
LIRQ 220850Z VRB04KT 9999 BKN060 05/M01 Q1008   
LIRQ 220820Z VRB03KT 9999 BKN060 06/M02 Q1008   
LIRQ 220750Z 34005KT 260V040 9999 BKN060 06/M02 Q1008   
LIRQ 220720Z 35004KT 310V030 9999 BKN055 06/M02 Q1007   
LIRQ 220650Z 32009KT 290V350 9999 BKN050 06/M02 Q1007   
LIRQ 220620Z 33011KT 300V360 9999 BKN050 06/M02 Q1007   
LIRQ 220550Z 30009KT 270V010 9999 BKN070 06/M02 Q1008   
LIRQ 220520Z 35006KT 300V030 9999 BKN070 06/M02 Q1008   
LIRQ 220450Z 35005KT 270V030 9999 BKN060 06/M02 Q1008   
LIRQ 220420Z 32010KT 280V010 9999 BKN060 06/M02 Q1008   
LIRQ 220350Z 30010KT 9999 BKN060 06/M02 Q1009   
LIRQ 220320Z 33009KT 300V010 9999 BKN060 06/M03 Q1009   
LIRQ 220250Z 33008G18KT 270V040 9999 BKN060 06/M02 Q1009
LIRQ 220220Z VRB04KT 9999 BKN050 06/M02 Q1010   
LIRQ 220150Z VRB04KT 9999 BKN050 06/M01 Q1010   
LIRQ 220120Z VRB06KT 9999 BKN050 06/M02 Q1011   
LIRQ 220050Z 27007KT 230V300 9999 BKN000 06/M01 Q1011   
LIRQ 220020Z VRB06KT 9999 BKN040 06/M01 Q1011   
LIRQ 212350Z 25005KT 190V310 9999 BKN040 06/M02 Q1012   
LIRQ 212320Z VRB03KT 9999 BKN040 06/M01 Q1012   
LIRQ 212250Z VRB03KT 9999 BKN045 06/M01 Q1013   
LIRQ 212220Z 26006KT 230V310 9999 BKN045 06/M00 Q1013   
LIRQ 212150Z VRB05KT 9999 BKN045 07/M00 Q1013   
LIRQ 212120Z 30006KT 250V360 9999 BKN045 06/01 Q1013
LIRQ 212050Z 30007KT 260V320 9999 BKN045 06/01 Q1013
LIRQ 212020Z 28007KT 240V340 9999 BKN045 07/01 Q1013
LIRQ 211950Z 29006KT 260V320 9999 BKN050 07/01 Q1013
LIRQ 211920Z VRB03KT 9999 SCT050 BKN080 07/00 Q1012 
LIRQ 211850Z 22004KT 150V290 9999 SCT050 BKN080 07/00 Q1012 
LIRQ 211820Z 22005KT 190V300 9999 FEW050 BKN080 07/00 Q1012 
LIRQ 211750Z VRB04KT 9999 SCT050 OVC080 07/00 Q1013 
LIRQ 211720Z VRB04KT 9999 SCT050 OVC080 07/M00 Q1013
LIRQ 211650Z 31005KT 260V350 9999 BKN050 07/M00 Q1013   
LIRQ 211620Z VRB05KT 9999 BKN050 07/M00 Q1013   
LIRQ 211550Z VRB03KT 9999 BKN055 07/M00 Q1013   
LIRQ 211520Z 28004KT 210V020 9999 BKN050 07/00 Q1013
LIRQ 211450Z VRB05KT 9999 -DZ BKN045 07/01 Q1013
LIRQ 211420Z 03009KT 340V080 9999 BKN045 07/00 Q1013
LIRQ 211350Z 03009KT 360V060 9999 BKN045 07/01 Q1013
LIRQ 211320Z VRB05G15KT 9999 BKN050 08/00 Q1013 
LIRQ 211250Z VRB05G17KT 9999 BKN060 08/00 Q1013